• Join FlightAware (Why Join?)
  • Login
  • US Flag 
11:27PM EDT


 

Airport Tracker/Info


-or-


 

Live Flight TrackerFlight Track Log ✈ BOE1 ✈ 23-Jan-2009 ✈ KBFI - KPAE

Flight Track Log - Related Links

Times and Time Zones

All times are in EST time to prevent confusion due to time zone crossing. See the BOE1 flight status page for this flight to view local times or setup timezone preferences in your user account.

Time Position Orientation Groundspeed Altitude Reporting Facility
EST Latitude Longitude Course Direction KTS MPH feet Rate Location/Type
04:13PM 47.5283 -122.0490 12° North 4,000  Level Seattle Center
04:14PM 47.6119 -122.0220 359° North 282 325 4,000  Level Seattle Center
04:15PM 47.6703 -122.0240 344° North 294 338 4,000  Level Seattle Center
04:16PM 47.7467 -122.0560 339° North 265 305 4,000  Level Seattle Center
04:17PM 47.8106 -122.0920 343° North 245 282 4,000  Level Seattle Center
04:18PM 47.8806 -122.1230 357° North 250 288 4,000 -420 Level Seattle Center
04:19PM 47.9553 -122.1290 356° North 255 293 3,200 -540 Descending Seattle Center
04:20PM 48.0281 -122.1360 355° North 255 293 3,000 -120 Descending Seattle Center
04:21PM 48.0986 -122.1450 343° North 244 281 3,000  Level Seattle Center
04:22PM 48.1564 -122.1720 295° West 231 266 3,000  Level Seattle Center
04:23PM 48.1797 -122.2480 264° West 199 229 3,000  Level Seattle Center
04:24PM 48.1739 -122.3260 178° South 178 205 3,000  Level Seattle Center
04:25PM 48.1322 -122.3240 152° Southeast 97 112 3,000  Level Seattle Center
04:26PM 48.0914 -122.2910 178° South 115 132 3,000 -60 Level Seattle Center
04:27PM 48.0417 -122.2880 178° South 141 162 2,900 -480 Descending Seattle Center
04:28PM 47.9978 -122.2860 181° South 154 177 2,100 -840 Descending Seattle Center
04:29PM 47.9542 -122.2870 195° South 160 184 1,300 -480 Descending Seattle Center
04:30PM 47.9122 -122.3040 201° Southwest 160 184 1,200 -60 Descending Seattle Center
04:31PM 47.8722 -122.3270 88° East 160 184 1,200 -60 Level Seattle Center
04:32PM 47.8731 -122.2860 88° East 60 69 1,100 -120 Descending Seattle Center